Terminal Aerodrome Forecast
Issued by NWS

Home | Current Version | Previous Version | Text Only | Print | Product List | Glossary On
Versions: 1 2 3 4 5 6 7 8 9 10 11 12 13 14 15 16 17 18 19 20 21 22 23 24 25 26 27
000
FTUS46 KSGX 311700
TAFSAN
TAF
KSAN 311722Z 3118/0124 VRB04KT P6SM BKN025 BKN200
     FM312000 30008KT P6SM SCT030 BKN250
     FM010200 VRB03KT P6SM SCT025 BKN250
     FM010700 VRB03KT 5SM HZ BKN012 BKN250
     FM011500 VRB03KT P6SM SCT015 SCT250
     FM011900 28007KT P6SM SCT250=

USA.gov is the U.S. government's official web portal to all federal, state and local government web resources and services.